Time;durP1;ratioP1;P1;durP2;ratioP2;P2;SDS_P1;SDS_P2;PMS_P1;PMS_P2;Temp;Humidity;BMP_temperature;BMP_pressure;BME280_temperature;BME280_humidity;BME280_pressure;Samples;Min_cycle;Max_cycle;Signal;HPM_P1;HPM_P2
2022/01/28 00:00:13;;;;;;;21.77;4.90;;;4.80;99.90;;;;;;5090001;28;20478;-81
2022/01/28 00:05:17;;;;;;;23.55;4.25;;;4.70;99.90;;;;;;5093916;28;20058;-82
2022/01/28 00:07:43;;;;;;;16.90;3.90;;;4.80;99.90;;;;;;5090665;28;20036;-80
2022/01/28 00:10:09;;;;;;;26.70;4.85;;;4.80;99.90;;;;;;5081262;28;20098;-81
2022/01/28 00:12:41;;;;;;;25.35;4.57;;;4.90;99.90;;;;;;5089387;28;20039;-82
2022/01/28 00:15:18;;;;;;;24.65;6.25;;;4.90;99.90;;;;;;5090672;28;20048;-82
2022/01/28 00:18:18;;;;;;;19.45;3.50;;;4.90;99.90;;;;;;5090321;28;20052;-82
2022/01/28 00:36:31;;;;;;;16.38;3.97;;;5.10;99.90;;;;;;5112346;28;20051;-80
2022/01/28 00:37:08;;;;;;;23.38;5.28;;;4.90;99.90;;;;;;5111001;28;20123;-79
2022/01/28 00:39:34;;;;;;;33.03;7.57;;;4.90;99.90;;;;;;5096517;28;20131;-80
2022/01/28 00:42:00;;;;;;;36.75;7.60;;;4.90;99.90;;;;;;5093069;28;20059;-80
2022/01/28 00:44:25;;;;;;;32.88;5.68;;;5.00;99.90;;;;;;5090544;28;20378;-80
2022/01/28 00:46:51;;;;;;;28.13;4.45;;;4.90;99.90;;;;;;5096387;28;20043;-80
2022/01/28 00:49:17;;;;;;;30.35;6.93;;;4.90;99.90;;;;;;5098762;28;20048;-80
2022/01/28 00:51:43;;;;;;;16.27;3.22;;;5.00;99.90;;;;;;5079868;28;20035;-75
2022/01/28 00:54:08;;;;;;;14.52;3.80;;;5.10;99.90;;;;;;5097630;28;20036;-81
2022/01/28 00:56:34;;;;;;;16.50;2.78;;;5.10;99.90;;;;;;5110765;28;20511;-80
2022/01/28 00:59:00;;;;;;;19.35;4.25;;;5.30;99.90;;;;;;5109221;28;20035;-80
2022/01/28 01:01:29;;;;;;;16.15;3.40;;;5.20;99.90;;;;;;5108732;28;20371;-81
2022/01/28 01:03:59;;;;;;;18.30;3.20;;;5.20;99.90;;;;;;5106581;28;20047;-79
2022/01/28 01:06:25;;;;;;;29.52;4.90;;;5.20;99.90;;;;;;5106094;28;20036;-80
2022/01/28 01:08:51;;;;;;;23.05;5.13;;;5.10;99.90;;;;;;5098526;28;20126;-79
2022/01/28 01:11:20;;;;;;;14.95;3.08;;;5.10;99.90;;;;;;5104507;28;20556;-81
2022/01/28 01:13:46;;;;;;;17.17;3.60;;;5.00;99.90;;;;;;5088305;28;20055;-81
2022/01/28 01:16:15;;;;;;;12.25;2.20;;;5.00;99.90;;;;;;5104881;28;20101;-80
2022/01/28 01:21:11;;;;;;;16.23;3.05;;;4.80;99.90;;;;;;5107148;28;20055;-81
2022/01/28 01:23:39;;;;;;;22.23;4.72;;;4.80;99.90;;;;;;5103977;28;20044;-80
2022/01/28 01:26:10;;;;;;;25.52;4.68;;;4.80;99.90;;;;;;5090291;28;20044;-81
2022/01/28 01:28:38;;;;;;;24.88;4.35;;;4.70;99.90;;;;;;5088664;28;20066;-80
2022/01/28 01:31:06;;;;;;;20.50;3.95;;;4.70;99.90;;;;;;5096802;28;20039;-81
2022/01/28 01:33:39;;;;;;;21.58;3.10;;;4.60;99.90;;;;;;5091290;28;20429;-80
2022/01/28 01:36:05;;;;;;;26.90;4.18;;;4.60;99.90;;;;;;5091285;28;20119;-80
2022/01/28 01:38:34;;;;;;;15.10;2.65;;;4.60;99.90;;;;;;5091415;28;20129;-81
2022/01/28 01:41:02;;;;;;;34.55;6.72;;;4.60;99.90;;;;;;5108669;28;20047;-81
2022/01/28 01:43:47;;;;;;;15.70;3.67;;;4.60;99.90;;;;;;5088096;28;20383;-80
2022/01/28 01:46:23;;;;;;;17.52;3.85;;;4.70;99.90;;;;;;5101082;28;20047;-75
2022/01/28 01:54:17;;;;;;;20.55;5.15;;;4.70;99.90;;;;;;5105510;28;20040;-81
2022/01/28 01:56:43;;;;;;;37.00;7.53;;;4.70;99.90;;;;;;5099876;28;20559;-77
2022/01/28 01:59:09;;;;;;;26.02;6.68;;;4.80;99.90;;;;;;5106545;28;20039;-79
2022/01/28 02:01:35;;;;;;;27.45;4.32;;;4.70;99.90;;;;;;5076558;28;20782;-80
2022/01/28 02:04:01;;;;;;;29.38;5.57;;;4.80;99.90;;;;;;5089095;28;20079;-80
2022/01/28 02:06:26;;;;;;;15.77;3.65;;;4.70;99.90;;;;;;5095696;28;20032;-81
2022/01/28 02:08:52;;;;;;;21.58;5.07;;;4.70;99.90;;;;;;5090357;28;20492;-82
2022/01/28 02:11:18;;;;;;;28.02;6.00;;;4.70;99.90;;;;;;5090219;28;20490;-81
2022/01/28 02:13:51;;;;;;;34.97;6.22;;;4.80;99.90;;;;;;5097875;28;20117;-79
2022/01/28 02:16:18;;;;;;;30.17;4.78;;;4.70;99.90;;;;;;5093565;28;20406;-81
2022/01/28 02:18:44;;;;;;;24.42;5.80;;;4.70;99.90;;;;;;5108330;28;20094;-81
2022/01/28 02:21:13;;;;;;;26.48;5.25;;;4.60;99.90;;;;;;5098342;28;20076;-81
2022/01/28 02:23:40;;;;;;;24.20;6.15;;;4.70;99.90;;;;;;5095205;28;20047;-80
2022/01/28 02:26:07;;;;;;;22.55;5.55;;;4.60;99.90;;;;;;5112377;28;20035;-81
2022/01/28 02:28:37;;;;;;;32.25;5.35;;;4.70;99.90;;;;;;5090907;28;20052;-80
2022/01/28 02:31:04;;;;;;;25.52;5.25;;;4.70;99.90;;;;;;5092019;28;20051;-81
2022/01/28 02:33:30;;;;;;;24.50;4.32;;;4.70;99.90;;;;;;5074458;28;20098;-81
2022/01/28 02:36:03;;;;;;;31.73;5.80;;;4.70;99.90;;;;;;5092133;28;20123;-80
2022/01/28 02:38:28;;;;;;;24.92;5.40;;;4.80;99.90;;;;;;5092638;28;20048;-79
2022/01/28 02:40:59;;;;;;;24.85;3.40;;;4.70;99.90;;;;;;5099070;28;20108;-81
2022/01/28 02:46:06;;;;;;;32.33;7.15;;;4.80;99.90;;;;;;5112178;28;20479;-80
2022/01/28 02:48:34;;;;;;;27.88;6.18;;;4.90;99.90;;;;;;5092995;28;20666;-80
2022/01/28 02:53:39;;;;;;;30.92;5.03;;;5.00;99.90;;;;;;5105902;28;20085;-80
2022/01/28 02:56:13;;;;;;;30.20;5.00;;;5.10;99.90;;;;;;5083393;28;20040;-80
2022/01/28 02:58:39;;;;;;;27.52;7.35;;;5.10;99.90;;;;;;5091758;28;20052;-80
2022/01/28 03:01:06;;;;;;;25.75;5.25;;;5.10;99.90;;;;;;5084398;28;20132;-80
2022/01/28 03:03:31;;;;;;;25.42;5.93;;;5.10;99.90;;;;;;5056933;28;20047;-82
2022/01/28 03:05:57;;;;;;;43.70;7.55;;;5.20;99.90;;;;;;5074027;28;20398;-81
2022/01/28 03:08:26;;;;;;;24.90;4.10;;;5.30;99.90;;;;;;5092038;28;20130;-80
2022/01/28 03:16:06;;;;;;;24.17;6.03;;;5.30;99.90;;;;;;5091661;28;20406;-81
2022/01/28 03:18:42;;;;;;;15.10;3.40;;;5.30;99.90;;;;;;5104734;28;20123;-81
2022/01/28 03:21:20;;;;;;;36.58;8.07;;;5.30;99.90;;;;;;5111553;28;20058;-81
2022/01/28 03:23:46;;;;;;;27.42;5.03;;;5.20;99.90;;;;;;5111810;28;20043;-81
2022/01/28 03:26:13;;;;;;;28.55;5.05;;;5.10;99.90;;;;;;5112514;28;20482;-81
2022/01/28 03:28:38;;;;;;;26.95;5.32;;;5.00;99.90;;;;;;5109216;28;20043;-80
2022/01/28 03:31:04;;;;;;;56.08;8.60;;;4.80;99.90;;;;;;5110963;28;20036;-80
2022/01/28 03:33:29;;;;;;;25.10;5.28;;;4.80;99.90;;;;;;5092742;28;20538;-80
2022/01/28 03:35:55;;;;;;;39.40;7.13;;;4.80;99.90;;;;;;5084231;28;20040;-80
2022/01/28 03:38:21;;;;;;;33.33;7.53;;;4.80;99.90;;;;;;5092070;28;20052;-81
2022/01/28 03:40:49;;;;;;;23.60;5.65;;;4.70;99.90;;;;;;5073062;28;20546;-81
2022/01/28 03:43:14;;;;;;;28.35;3.88;;;4.80;99.90;;;;;;5090242;28;20085;-80
2022/01/28 03:45:40;;;;;;;32.13;6.00;;;4.80;99.90;;;;;;5091401;28;20047;-81
2022/01/28 03:48:05;;;;;;;17.90;4.47;;;4.80;99.90;;;;;;5090882;28;20048;-82
2022/01/28 03:50:33;;;;;;;20.48;4.43;;;4.90;99.90;;;;;;5096751;28;20066;-79
2022/01/28 03:53:00;;;;;;;29.98;5.22;;;5.00;99.90;;;;;;5104555;28;20067;-79
2022/01/28 03:55:26;;;;;;;33.40;5.00;;;5.00;99.90;;;;;;5108109;28;20043;-80
2022/01/28 03:57:52;;;;;;;28.88;5.95;;;5.00;99.90;;;;;;5110379;28;20133;-80
2022/01/28 04:00:17;;;;;;;17.75;5.43;;;5.00;99.90;;;;;;5111123;28;20032;-77
2022/01/28 04:02:45;;;;;;;28.08;3.63;;;5.10;99.90;;;;;;5091668;28;20104;-77
2022/01/28 04:13:22;;;;;;;22.27;5.05;;;5.20;99.90;;;;;;5089408;28;20083;-82
2022/01/28 04:15:54;;;;;;;32.38;6.75;;;5.20;99.90;;;;;;5072031;28;20105;-81
2022/01/28 04:18:19;;;;;;;25.40;6.15;;;5.20;99.90;;;;;;5091104;28;20039;-80
2022/01/28 04:20:45;;;;;;;29.42;7.32;;;5.30;99.90;;;;;;5091193;28;20115;-81
2022/01/28 04:23:10;;;;;;;25.23;5.53;;;5.40;99.90;;;;;;5112553;28;20536;-81
2022/01/28 04:25:36;;;;;;;22.58;5.25;;;5.40;99.90;;;;;;5107572;28;20047;-79
2022/01/28 04:28:02;;;;;;;38.42;5.82;;;5.40;99.90;;;;;;5089030;28;20515;-81
2022/01/28 04:30:27;;;;;;;23.27;4.93;;;5.40;99.90;;;;;;5108642;28;20649;-81
2022/01/28 04:32:53;;;;;;;14.27;4.78;;;5.40;99.90;;;;;;5089959;28;20079;-81
2022/01/28 04:35:18;;;;;;;23.90;4.50;;;5.40;99.90;;;;;;5090191;28;20460;-80
2022/01/28 04:38:01;;;;;;;31.35;5.82;;;5.30;99.90;;;;;;5109012;28;20055;-80
2022/01/28 04:40:34;;;;;;;25.10;5.70;;;5.30;99.90;;;;;;5084548;28;20028;-80
2022/01/28 04:43:19;;;;;;;42.70;6.50;;;5.30;99.90;;;;;;5088284;28;20048;-81
2022/01/28 04:46:00;;;;;;;26.50;5.28;;;5.30;99.90;;;;;;5105757;28;20078;-78
2022/01/28 04:58:51;;;;;;;22.27;5.82;;;5.40;99.90;;;;;;5092557;28;20039;-80
2022/01/28 05:01:37;;;;;;;34.17;6.70;;;5.40;99.90;;;;;;5108830;28;20039;-81
2022/01/28 05:12:37;;;;;;;35.25;5.55;;;5.50;99.90;;;;;;5090571;28;20044;-81
2022/01/28 05:17:04;;;;;;;34.28;6.35;;;5.40;99.90;;;;;;5093679;28;20051;-73
2022/01/28 05:27:17;;;;;;;30.52;6.72;;;5.30;99.90;;;;;;5088477;28;20506;-79
2022/01/28 05:29:42;;;;;;;29.55;5.78;;;5.20;99.90;;;;;;5089617;28;20040;-75
2022/01/28 05:32:09;;;;;;;23.33;4.55;;;5.10;99.90;;;;;;5071521;28;20338;-81
2022/01/28 05:34:35;;;;;;;32.83;5.63;;;5.00;99.90;;;;;;5089760;28;20051;-81
2022/01/28 05:37:00;;;;;;;34.72;6.13;;;4.90;99.90;;;;;;5089694;28;20036;-81
2022/01/28 05:39:26;;;;;;;25.92;5.80;;;4.90;99.90;;;;;;5089836;28;20082;-79
2022/01/28 05:41:52;;;;;;;39.47;7.72;;;4.80;99.90;;;;;;5070499;28;20104;-80
2022/01/28 05:44:18;;;;;;;42.50;5.85;;;4.70;99.90;;;;;;5074753;28;20166;-79
2022/01/28 05:46:45;;;;;;;30.00;6.72;;;4.60;99.90;;;;;;5074169;28;20047;-80
2022/01/28 05:49:13;;;;;;;29.50;6.20;;;4.60;99.90;;;;;;5090024;28;20075;-80
2022/01/28 05:51:38;;;;;;;31.52;9.88;;;4.50;99.90;;;;;;5074850;28;20478;-79
2022/01/28 05:54:04;;;;;;;26.63;5.53;;;4.50;99.90;;;;;;5112560;28;20044;-79
2022/01/28 05:56:31;;;;;;;19.50;5.78;;;4.50;99.90;;;;;;5108263;28;20039;-80
2022/01/28 05:58:58;;;;;;;29.95;6.35;;;4.50;99.90;;;;;;5096244;28;20050;-80
2022/01/28 06:01:24;;;;;;;38.13;6.25;;;4.40;99.90;;;;;;5079289;28;20032;-80
2022/01/28 06:03:50;;;;;;;24.00;5.20;;;4.40;99.90;;;;;;5074492;28;20161;-79
2022/01/28 06:06:20;;;;;;;32.35;6.28;;;4.30;99.90;;;;;;5074736;28;20051;-78
2022/01/28 06:08:51;;;;;;;28.30;7.75;;;4.30;99.90;;;;;;5093039;28;20124;-78
2022/01/28 06:11:17;;;;;;;18.70;4.68;;;4.30;99.90;;;;;;5092896;28;20040;-79
2022/01/28 06:13:43;;;;;;;39.92;8.55;;;4.10;99.90;;;;;;5073387;28;20048;-78
2022/01/28 06:16:10;;;;;;;18.17;6.15;;;4.10;99.90;;;;;;5075046;28;20538;-78
2022/01/28 06:18:36;;;;;;;35.53;7.28;;;4.00;99.90;;;;;;5093212;28;20044;-79
2022/01/28 06:21:02;;;;;;;38.53;6.32;;;4.00;99.90;;;;;;5085830;28;20182;-79
2022/01/28 06:23:28;;;;;;;21.42;5.88;;;4.10;99.90;;;;;;5092331;28;20052;-80
2022/01/28 06:25:53;;;;;;;23.80;6.68;;;4.10;99.90;;;;;;5074052;28;20067;-79
2022/01/28 06:28:19;;;;;;;28.85;5.10;;;4.00;99.90;;;;;;5091715;28;20071;-79
2022/01/28 06:30:45;;;;;;;27.70;5.13;;;4.00;99.90;;;;;;5091841;28;20482;-80
2022/01/28 06:33:12;;;;;;;28.40;6.30;;;4.00;99.90;;;;;;5092640;28;20032;-80
2022/01/28 06:35:38;;;;;;;32.83;7.90;;;3.90;99.90;;;;;;5092892;28;20055;-79
2022/01/28 06:38:04;;;;;;;32.13;5.85;;;3.90;99.90;;;;;;5092251;28;20040;-80
2022/01/28 06:40:29;;;;;;;19.70;4.72;;;3.80;99.90;;;;;;5092634;28;20051;-79
2022/01/28 06:42:55;;;;;;;23.23;5.47;;;3.80;99.90;;;;;;5073629;28;20044;-76
2022/01/28 06:45:21;;;;;;;52.17;7.50;;;3.80;99.90;;;;;;5088819;28;20490;-80
2022/01/28 06:47:46;;;;;;;24.38;6.63;;;3.70;99.90;;;;;;5094751;28;20044;-80
2022/01/28 06:50:12;;;;;;;33.85;7.60;;;3.80;99.90;;;;;;5076637;28;20048;-82
2022/01/28 06:52:39;;;;;;;33.88;6.40;;;3.70;99.90;;;;;;5074317;28;20040;-79
2022/01/28 06:55:06;;;;;;;28.35;4.80;;;3.70;99.90;;;;;;5093385;28;20036;-84
2022/01/28 06:57:31;;;;;;;23.40;4.70;;;3.80;99.90;;;;;;5095274;28;20463;-82
2022/01/28 06:59:58;;;;;;;27.00;6.93;;;3.70;99.90;;;;;;5112315;28;20046;-85
2022/01/28 07:02:23;;;;;;;21.00;5.60;;;3.80;99.90;;;;;;5096688;28;20134;-85
2022/01/28 07:04:49;;;;;;;29.90;6.00;;;3.80;99.90;;;;;;5114137;28;20486;-85
2022/01/28 07:07:15;;;;;;;26.02;5.85;;;3.70;99.90;;;;;;5078774;28;20438;-85
2022/01/28 07:09:41;;;;;;;26.30;5.90;;;3.70;99.90;;;;;;5078221;28;20043;-85
2022/01/28 07:12:07;;;;;;;27.00;4.95;;;3.70;99.90;;;;;;5095184;28;20063;-85
2022/01/28 07:14:33;;;;;;;37.15;6.68;;;3.60;99.90;;;;;;5114037;28;20521;-85
2022/01/28 07:16:58;;;;;;;33.47;6.45;;;3.60;99.90;;;;;;5117458;28;20089;-87
2022/01/28 07:19:24;;;;;;;16.23;4.32;;;3.40;99.90;;;;;;5112546;28;20032;-80
2022/01/28 07:21:50;;;;;;;38.53;4.28;;;3.30;99.90;;;;;;5098048;28;20176;-83
2022/01/28 07:24:16;;;;;;;21.55;4.22;;;3.40;99.90;;;;;;5115548;28;20537;-87
2022/01/28 07:26:42;;;;;;;29.42;6.07;;;3.30;99.90;;;;;;5112400;28;20044;-85
2022/01/28 07:29:10;;;;;;;26.65;4.95;;;3.30;99.90;;;;;;5101839;28;20047;-85
2022/01/28 07:31:37;;;;;;;41.88;6.30;;;3.30;99.90;;;;;;5107030;28;20044;-86
2022/01/28 07:34:03;;;;;;;22.52;6.95;;;3.30;99.90;;;;;;5111753;28;20051;-86
2022/01/28 07:36:29;;;;;;;20.92;3.20;;;3.20;99.90;;;;;;5091280;28;20085;-86
2022/01/28 07:38:54;;;;;;;35.70;7.22;;;3.20;99.90;;;;;;5073339;28;20052;-84
2022/01/28 07:41:20;;;;;;;22.42;5.82;;;3.30;99.90;;;;;;5104074;28;20126;-73
2022/01/28 07:43:48;;;;;;;48.35;9.85;;;3.30;99.90;;;;;;5104273;28;20131;-85
2022/01/28 07:46:14;;;;;;;26.95;6.75;;;3.40;99.90;;;;;;5109687;28;20147;-84
2022/01/28 07:48:40;;;;;;;42.92;7.82;;;3.40;99.90;;;;;;5088581;27;20058;-86
2022/01/28 07:51:05;;;;;;;34.75;8.00;;;3.60;99.90;;;;;;5081603;28;20040;-86
2022/01/28 07:53:31;;;;;;;22.27;4.28;;;3.60;99.90;;;;;;5079476;28;20090;-86
2022/01/28 07:55:56;;;;;;;24.08;5.38;;;3.70;99.90;;;;;;5076365;28;20040;-86
2022/01/28 07:58:22;;;;;;;55.63;7.35;;;3.70;99.90;;;;;;5092614;28;20070;-87
2022/01/28 08:00:48;;;;;;;25.65;5.15;;;3.80;99.90;;;;;;5073346;28;20052;-86
2022/01/28 08:03:14;;;;;;;40.20;6.50;;;3.80;99.90;;;;;;5090938;28;20047;-86
2022/01/28 08:05:39;;;;;;;26.55;6.07;;;3.80;99.90;;;;;;5100936;28;20070;-88
2022/01/28 08:08:08;;;;;;;30.80;6.47;;;3.90;99.90;;;;;;5090523;28;20044;-84
2022/01/28 08:10:33;;;;;;;30.63;7.00;;;4.00;99.90;;;;;;5111725;28;20051;-87
2022/01/28 08:13:03;;;;;;;35.92;7.90;;;4.00;99.90;;;;;;5092436;28;20516;-88
2022/01/28 08:15:29;;;;;;;20.70;5.82;;;4.00;99.90;;;;;;5096027;28;20040;-85
2022/01/28 08:17:55;;;;;;;28.55;6.10;;;4.00;99.90;;;;;;5090030;28;20044;-85
2022/01/28 08:20:21;;;;;;;38.75;6.93;;;4.10;99.90;;;;;;5098228;28;20031;-85
2022/01/28 08:22:48;;;;;;;31.42;7.05;;;4.10;99.90;;;;;;5076769;28;20429;-85
2022/01/28 08:25:16;;;;;;;31.83;7.43;;;4.10;99.90;;;;;;5084098;28;20101;-84
2022/01/28 08:27:45;;;;;;;20.85;6.28;;;4.10;99.90;;;;;;5089440;28;20044;-81
2022/01/28 08:30:12;;;;;;;29.48;5.68;;;4.10;99.90;;;;;;5072419;28;20525;-83
2022/01/28 08:32:38;;;;;;;59.72;6.70;;;4.10;99.90;;;;;;5073257;28;20445;-84
2022/01/28 08:35:04;;;;;;;34.40;8.15;;;4.00;99.90;;;;;;5102282;28;20109;-86
2022/01/28 08:37:30;;;;;;;25.60;5.18;;;4.00;99.90;;;;;;5102133;28;20036;-88
2022/01/28 08:39:56;;;;;;;43.20;7.93;;;4.00;99.90;;;;;;5111402;28;20040;-87
2022/01/28 08:42:21;;;;;;;25.10;7.18;;;4.00;99.90;;;;;;5100416;28;20032;-85
2022/01/28 08:44:47;;;;;;;34.53;7.32;;;4.00;99.90;;;;;;5091485;28;20123;-84
2022/01/28 08:47:12;;;;;;;24.83;6.13;;;3.90;99.90;;;;;;5100804;28;20048;-79
2022/01/28 08:49:38;;;;;;;33.03;8.45;;;4.00;99.90;;;;;;5091073;28;20044;-87
2022/01/28 08:52:04;;;;;;;27.77;5.43;;;4.00;99.90;;;;;;5109504;27;20088;-82
2022/01/28 08:54:30;;;;;;;28.52;6.22;;;4.10;99.90;;;;;;5098573;27;20070;-85
2022/01/28 08:56:55;;;;;;;35.75;5.43;;;4.20;99.90;;;;;;5106472;27;20082;-87
2022/01/28 08:59:21;;;;;;;34.08;6.32;;;4.30;99.90;;;;;;5091671;28;20036;-85
2022/01/28 09:01:46;;;;;;;21.88;5.75;;;4.40;99.90;;;;;;5091190;28;20032;-85
2022/01/28 09:04:12;;;;;;;40.72;7.63;;;4.50;99.90;;;;;;5087233;28;20403;-85
2022/01/28 09:06:37;;;;;;;27.60;6.80;;;4.60;99.90;;;;;;5086239;28;20163;-86
2022/01/28 09:09:03;;;;;;;26.02;5.82;;;4.80;99.90;;;;;;5101186;28;20047;-89
2022/01/28 09:11:48;;;;;;;15.98;4.75;;;5.00;99.90;;;;;;5125420;28;20065;-84
2022/01/28 09:14:15;;;;;;;28.00;6.45;;;5.10;99.90;;;;;;5116552;28;20051;-86
2022/01/28 09:16:43;;;;;;;23.15;4.18;;;5.20;99.90;;;;;;5083451;28;20060;-90
2022/01/28 09:19:08;;;;;;;27.25;5.55;;;5.30;99.90;;;;;;5071670;28;20131;-89
2022/01/28 09:21:34;;;;;;;39.58;7.50;;;5.40;99.90;;;;;;5114904;28;20067;-90
2022/01/28 09:24:00;;;;;;;29.50;5.82;;;5.60;99.90;;;;;;5117021;28;20044;-91
2022/01/28 09:26:25;;;;;;;34.10;6.85;;;5.60;99.90;;;;;;5097752;28;20096;-89
2022/01/28 09:28:51;;;;;;;31.58;4.88;;;5.60;99.90;;;;;;5135555;28;20063;-88
2022/01/28 09:31:17;;;;;;;30.75;7.30;;;5.50;99.90;;;;;;5110622;28;20035;-90
2022/01/28 09:33:43;;;;;;;23.48;5.25;;;5.50;99.90;;;;;;5108964;28;20088;-74
2022/01/28 09:36:09;;;;;;;29.42;7.70;;;5.50;99.90;;;;;;5113436;28;20047;-91
2022/01/28 09:38:35;;;;;;;22.55;5.07;;;5.50;99.90;;;;;;5111719;28;20070;-87
2022/01/28 09:41:03;;;;;;;27.15;5.60;;;5.50;99.90;;;;;;5113532;28;20032;-87
2022/01/28 09:43:29;;;;;;;38.70;7.05;;;5.50;99.90;;;;;;5111161;28;20058;-87
2022/01/28 09:45:55;;;;;;;44.58;7.85;;;5.50;99.90;;;;;;5085232;28;20060;-85
2022/01/28 09:48:22;;;;;;;30.33;6.65;;;5.50;99.90;;;;;;5099800;28;20040;-91
2022/01/28 09:50:48;;;;;;;25.83;7.15;;;5.40;99.90;;;;;;5101495;28;20073;-89
2022/01/28 09:53:14;;;;;;;24.83;6.72;;;5.30;99.90;;;;;;5100107;28;20032;-87
2022/01/28 09:55:42;;;;;;;29.92;5.95;;;5.20;99.90;;;;;;5091198;28;20038;-89
2022/01/28 09:58:07;;;;;;;23.42;5.97;;;5.30;99.90;;;;;;5117005;28;20134;-90
2022/01/28 10:00:33;;;;;;;30.85;5.85;;;5.30;99.90;;;;;;5086758;28;20047;-88
2022/01/28 10:03:05;;;;;;;31.52;7.07;;;5.20;99.90;;;;;;5110235;28;20054;-85
2022/01/28 10:05:46;;;;;;;30.75;8.27;;;5.30;99.90;;;;;;5089262;28;20048;-88
2022/01/28 10:08:13;;;;;;;27.08;4.95;;;5.30;99.90;;;;;;5090587;28;20036;-89
2022/01/28 10:10:55;;;;;;;28.80;6.97;;;5.40;99.90;;;;;;5074732;28;20122;-87
2022/01/28 10:13:29;;;;;;;29.23;5.78;;;5.50;99.90;;;;;;5088703;28;20040;-89
2022/01/28 10:16:00;;;;;;;26.80;5.80;;;5.70;99.90;;;;;;5098830;28;20115;-87
2022/01/28 10:18:46;;;;;;;41.38;10.55;;;5.90;99.90;;;;;;5073893;28;20170;-90
2022/01/28 10:21:26;;;;;;;39.03;11.18;;;6.00;99.90;;;;;;5073625;28;20048;-88
2022/01/28 10:24:18;;;;;;;31.30;7.28;;;6.00;99.90;;;;;;5100401;28;20044;-88
2022/01/28 10:26:56;;;;;;;26.92;5.40;;;6.10;99.90;;;;;;5080726;28;20062;-86
2022/01/28 10:29:30;;;;;;;35.38;8.98;;;6.20;99.90;;;;;;5112982;28;20051;-88
2022/01/28 10:31:57;;;;;;;40.85;8.02;;;6.10;99.90;;;;;;5069191;28;20051;-87
2022/01/28 10:34:33;;;;;;;27.45;6.03;;;6.10;99.90;;;;;;5099931;28;20044;-88
2022/01/28 10:37:32;;;;;;;34.42;6.63;;;6.10;99.90;;;;;;5065398;28;20044;-85
2022/01/28 10:40:03;;;;;;;38.43;7.50;;;6.00;99.90;;;;;;5096094;28;20501;-89
2022/01/28 10:42:29;;;;;;;29.10;5.93;;;6.00;99.90;;;;;;5077849;28;20435;-88
2022/01/28 10:44:56;;;;;;;24.50;5.78;;;5.90;99.90;;;;;;5114305;28;20047;-89
2022/01/28 10:47:50;;;;;;;21.27;5.13;;;5.90;99.90;;;;;;5077557;28;20126;-87
2022/01/28 10:50:31;;;;;;;24.70;5.57;;;5.80;99.90;;;;;;5094731;28;20410;-87
2022/01/28 10:53:11;;;;;;;37.67;6.65;;;5.80;99.90;;;;;;5093642;28;20405;-87
2022/01/28 10:55:39;;;;;;;23.17;5.63;;;5.80;99.90;;;;;;5100827;28;20035;-89
2022/01/28 10:58:05;;;;;;;30.83;6.95;;;5.80;99.90;;;;;;5096476;27;20044;-88
2022/01/28 11:00:35;;;;;;;30.48;7.60;;;5.90;99.90;;;;;;5115754;28;20050;-77
2022/01/28 11:03:04;;;;;;;26.95;6.28;;;6.00;99.90;;;;;;5109657;28;20058;-83
2022/01/28 11:05:33;;;;;;;20.27;5.88;;;5.90;99.90;;;;;;5099031;28;20040;-78
2022/01/28 11:08:00;;;;;;;27.52;7.10;;;6.00;99.90;;;;;;5108711;28;20038;-86
2022/01/28 11:10:26;;;;;;;45.13;6.80;;;6.00;99.90;;;;;;5117826;28;20082;-79
2022/01/28 11:12:52;;;;;;;37.88;6.68;;;6.20;99.90;;;;;;5094181;28;20105;-87
2022/01/28 11:15:20;;;;;;;27.08;8.10;;;6.40;99.90;;;;;;5129559;28;20077;-72
2022/01/28 11:17:50;;;;;;;20.40;7.43;;;6.60;99.90;;;;;;5118556;28;20036;-79
2022/01/28 11:20:20;;;;;;;24.00;5.00;;;6.60;99.90;;;;;;5118044;28;20036;-75
2022/01/28 11:23:00;;;;;;;27.20;4.72;;;6.50;99.90;;;;;;5094756;28;20036;-87
2022/01/28 11:25:35;;;;;;;24.75;4.80;;;6.60;99.90;;;;;;5065281;27;20059;-86
2022/01/28 11:28:09;;;;;;;28.67;7.57;;;6.50;99.90;;;;;;5096323;28;20051;-86
2022/01/28 11:30:35;;;;;;;26.08;5.93;;;6.50;99.90;;;;;;5102433;28;20040;-87
2022/01/28 11:33:06;;;;;;;19.17;5.50;;;6.50;99.90;;;;;;5093282;28;20040;-87
2022/01/28 11:35:52;;;;;;;24.77;6.72;;;6.50;99.90;;;;;;5093517;28;20115;-89
2022/01/28 11:38:27;;;;;;;25.92;4.60;;;6.50;99.90;;;;;;5074595;28;20109;-86
2022/01/28 11:40:56;;;;;;;27.10;5.05;;;6.50;99.90;;;;;;5072906;28;20078;-88
2022/01/28 11:43:30;;;;;;;15.90;4.07;;;6.50;99.90;;;;;;5092053;28;20036;-87
2022/01/28 11:46:08;;;;;;;22.27;5.03;;;6.50;99.90;;;;;;5104011;28;20090;-87
2022/01/28 11:48:52;;;;;;;25.80;4.68;;;6.60;99.90;;;;;;5076758;28;20074;-88
2022/01/28 11:51:41;;;;;;;23.48;6.78;;;6.70;99.90;;;;;;5090381;28;20070;-86
2022/01/28 11:54:20;;;;;;;25.83;6.32;;;6.80;99.90;;;;;;5101192;28;20490;-85
2022/01/28 11:56:58;;;;;;;30.05;4.57;;;7.00;99.90;;;;;;5108145;28;20416;-87
2022/01/28 11:59:30;;;;;;;27.83;4.03;;;7.20;99.90;;;;;;5113416;28;20044;-87
2022/01/28 12:01:59;;;;;;;26.08;5.50;;;7.30;99.90;;;;;;5112384;28;20040;-89
2022/01/28 12:04:25;;;;;;;22.50;4.57;;;7.40;99.90;;;;;;5083054;28;20036;-89
2022/01/28 12:07:03;;;;;;;26.10;5.90;;;7.60;99.90;;;;;;5057884;28;20071;-87
2022/01/28 12:09:30;;;;;;;29.77;5.47;;;7.50;99.90;;;;;;5073740;28;20043;-87
2022/01/28 12:11:55;;;;;;;23.33;4.90;;;7.50;99.90;;;;;;5090900;28;20036;-87
2022/01/28 12:14:54;;;;;;;27.13;5.15;;;7.50;99.90;;;;;;5093373;28;20055;-87
2022/01/28 12:17:29;;;;;;;20.40;4.63;;;7.40;99.90;;;;;;5077720;28;20055;-81
2022/01/28 12:20:13;;;;;;;20.88;3.22;;;7.50;99.90;;;;;;5088996;28;20060;-82
2022/01/28 12:22:59;;;;;;;19.58;3.20;;;7.40;99.90;;;;;;5097341;28;20032;-86
2022/01/28 12:25:43;;;;;;;17.52;3.33;;;7.30;99.90;;;;;;5110573;28;20059;-85
2022/01/28 12:28:12;;;;;;;20.05;3.25;;;7.30;99.90;;;;;;5112746;28;20077;-86
2022/01/28 12:30:38;;;;;;;21.55;4.95;;;7.40;99.90;;;;;;5112445;28;20039;-89
2022/01/28 12:33:04;;;;;;;17.63;3.92;;;7.50;99.90;;;;;;5082868;28;20052;-87
2022/01/28 12:35:30;;;;;;;12.52;2.88;;;7.70;99.90;;;;;;5091045;28;20169;-88
2022/01/28 12:38:01;;;;;;;19.48;4.40;;;7.50;99.90;;;;;;5081579;28;20032;-88
2022/01/28 12:40:34;;;;;;;19.33;4.68;;;7.40;99.90;;;;;;5110463;28;20043;-89
2022/01/28 12:43:01;;;;;;;26.33;5.38;;;7.50;99.90;;;;;;5090128;28;20124;-90
2022/01/28 12:45:26;;;;;;;24.23;5.43;;;7.50;99.90;;;;;;5100080;28;20044;-90
2022/01/28 12:47:52;;;;;;;17.05;4.95;;;7.60;99.90;;;;;;5072988;28;20054;-89
2022/01/28 12:50:19;;;;;;;24.77;5.07;;;7.50;99.90;;;;;;5092025;28;20567;-88
2022/01/28 12:52:46;;;;;;;26.98;4.22;;;7.40;99.90;;;;;;5091626;28;20071;-88
2022/01/28 12:55:12;;;;;;;12.90;4.43;;;7.30;99.90;;;;;;5093408;28;20050;-88
2022/01/28 12:57:42;;;;;;;26.80;6.50;;;7.20;99.90;;;;;;5092482;28;20076;-89
2022/01/28 13:00:09;;;;;;;22.88;5.10;;;7.20;99.90;;;;;;5096656;28;20513;-89
2022/01/28 13:02:35;;;;;;;15.90;3.30;;;7.30;99.90;;;;;;5092995;28;20043;-88
2022/01/28 13:10:20;;;;;;;23.92;4.45;;;7.80;99.90;;;;;;5099377;28;20048;-84
2022/01/28 13:12:46;;;;;;;21.23;4.50;;;7.80;99.90;;;;;;5109580;28;20057;-85
2022/01/28 13:15:13;;;;;;;28.73;4.75;;;7.60;99.90;;;;;;5103450;28;20111;-82
2022/01/28 13:17:50;;;;;;;22.40;3.67;;;7.30;99.90;;;;;;5106051;28;20067;-77
2022/01/28 13:20:16;;;;;;;29.48;5.72;;;7.20;99.90;;;;;;5085737;28;20055;-84
2022/01/28 13:22:49;;;;;;;27.35;5.85;;;7.10;99.90;;;;;;5112080;28;20032;-83
2022/01/28 13:25:26;;;;;;;10.32;3.10;;;7.10;99.90;;;;;;5092969;28;20412;-82
2022/01/28 13:27:58;;;;;;;20.13;4.05;;;7.10;99.90;;;;;;5103105;28;20379;-83
2022/01/28 13:30:24;;;;;;;20.13;4.53;;;7.30;99.90;;;;;;5100902;28;20477;-85
2022/01/28 13:32:52;;;;;;;20.23;4.93;;;7.50;99.90;;;;;;5093515;28;20481;-82
2022/01/28 13:35:23;;;;;;;24.30;5.30;;;7.80;99.90;;;;;;5097470;28;20389;-82
2022/01/28 13:37:50;;;;;;;20.63;4.18;;;7.80;99.90;;;;;;5100973;28;20119;-83
2022/01/28 13:40:18;;;;;;;18.77;4.70;;;8.00;99.90;;;;;;5103622;28;20439;-86
2022/01/28 13:43:13;;;;;;;22.48;4.10;;;7.80;99.90;;;;;;5092673;28;20051;-83
2022/01/28 13:45:53;;;;;;;22.90;4.43;;;7.80;99.90;;;;;;5096843;28;20132;-82
2022/01/28 13:48:34;;;;;;;26.58;5.00;;;7.70;99.90;;;;;;5105850;28;20390;-83
2022/01/28 13:51:07;;;;;;;27.02;5.25;;;7.50;99.90;;;;;;5087948;28;20043;-83
2022/01/28 13:56:31;;;;;;;30.15;5.40;;;7.30;99.90;;;;;;5119641;28;20111;-82
2022/01/28 13:58:57;;;;;;;13.40;2.83;;;7.20;99.90;;;;;;5098649;28;20562;-84
2022/01/28 14:01:26;;;;;;;30.73;4.10;;;7.20;99.90;;;;;;5111954;28;20092;-84
2022/01/28 14:03:54;;;;;;;24.50;4.43;;;7.10;99.90;;;;;;5093536;28;20062;-84
2022/01/28 14:06:22;;;;;;;21.13;4.10;;;7.10;99.90;;;;;;5123104;28;20054;-82
2022/01/28 14:08:54;;;;;;;15.15;2.10;;;7.20;99.90;;;;;;5112607;28;20047;-82
2022/01/28 14:11:33;;;;;;;18.92;4.10;;;7.10;99.90;;;;;;5134512;28;20092;-81
2022/01/28 14:14:24;;;;;;;15.00;3.28;;;7.20;99.90;;;;;;5121116;28;20051;-83
2022/01/28 14:17:02;;;;;;;17.73;4.35;;;7.20;99.90;;;;;;5099152;28;20101;-83